Time;durP1;ratioP1;P1;durP2;ratioP2;P2;SDS_P1;SDS_P2;PMS_P1;PMS_P2;Temp;Humidity;BMP_temperature;BMP_pressure;BME280_temperature;BME280_humidity;BME280_pressure;Samples;Min_cycle;Max_cycle;Signal;HPM_P1;HPM_P2
2022/12/10 00:01:24;;;;;;;86.47;25.80;;;;;;;0.41;100.00;147549.81;5025192;28;20037;-64
2022/12/10 00:03:49;;;;;;;84.77;25.97;;;;;;;0.41;100.00;147548.53;5030851;28;20049;-64
2022/12/10 00:06:18;;;;;;;90.50;25.03;;;;;;;0.39;100.00;147544.69;5028204;28;20417;-64
2022/12/10 00:08:43;;;;;;;86.37;24.87;;;;;;;0.37;100.00;147539.56;5024117;28;20049;-64
2022/12/10 00:11:12;;;;;;;92.03;27.30;;;;;;;0.38;100.00;147540.84;5034503;28;20028;-64
2022/12/10 00:13:38;;;;;;;92.80;25.93;;;;;;;0.41;100.00;147549.81;5028852;28;20033;-64
2022/12/10 00:16:06;;;;;;;103.27;28.67;;;;;;;0.29;100.00;147519.03;5026307;28;20034;-64
2022/12/10 00:18:32;;;;;;;102.60;29.70;;;;;;;0.31;100.00;147522.88;5045626;28;20029;-64
2022/12/10 00:20:58;;;;;;;112.13;31.23;;;;;;;0.28;100.00;147516.47;5032520;28;20087;-64
2022/12/10 00:23:24;;;;;;;89.03;26.60;;;;;;;0.30;100.00;147521.59;5031603;28;20041;-64
2022/12/10 00:25:50;;;;;;;95.80;29.47;;;;;;;0.31;100.00;147522.88;5025460;28;20035;-64
2022/12/10 00:28:15;;;;;;;99.37;27.43;;;;;;;0.32;100.00;147525.44;5030158;28;20782;-64
2022/12/10 00:30:40;;;;;;;92.40;27.00;;;;;;;0.29;100.00;147519.03;5033546;28;20025;-64
2022/12/10 00:33:06;;;;;;;93.70;26.50;;;;;;;0.22;100.00;147501.03;5043878;28;20029;-64
2022/12/10 00:35:34;;;;;;;67.83;21.63;;;;;;;0.30;100.00;147521.59;5026896;28;20553;-64
2022/12/10 00:38:00;;;;;;;91.50;27.63;;;;;;;0.24;100.00;147506.16;5046208;28;20082;-64
2022/12/10 00:40:25;;;;;;;87.83;27.63;;;;;;;0.17;100.00;147489.50;5030672;28;20033;-64
2022/12/10 00:42:50;;;;;;;89.30;27.13;;;;;;;0.14;100.00;147480.53;5044042;28;20108;-64
2022/12/10 00:45:16;;;;;;;75.67;22.23;;;;;;;0.20;100.00;147497.19;5029047;28;20539;-64
2022/12/10 00:47:41;;;;;;;79.43;24.50;;;;;;;0.17;100.00;147488.22;5037211;28;20033;-64
2022/12/10 00:50:07;;;;;;;85.77;27.17;;;;;;;0.12;100.00;147475.38;5046037;28;20076;-64
2022/12/10 00:52:32;;;;;;;80.50;24.30;;;;;;;0.08;100.00;147465.13;5051286;28;20495;-64
2022/12/10 00:54:57;;;;;;;72.63;22.77;;;;;;;0.10;100.00;147470.25;5046007;28;20103;-64
2022/12/10 00:57:23;;;;;;;70.30;23.50;;;;;;;0.08;100.00;147465.13;5039434;28;20091;-64
2022/12/10 00:59:48;;;;;;;69.37;23.47;;;;;;;0.09;100.00;147467.69;5050701;28;20040;-64
2022/12/10 01:02:13;;;;;;;73.57;23.53;;;;;;;0.05;100.00;147458.72;5050863;28;20049;-65
2022/12/10 01:04:39;;;;;;;82.70;25.13;;;;;;;-0.05;100.00;147434.31;5039302;28;20056;-64
2022/12/10 01:07:04;;;;;;;86.13;25.50;;;;;;;-0.06;100.00;147431.75;5045573;28;20392;-64
2022/12/10 01:09:30;;;;;;;72.97;22.80;;;;;;;-0.08;100.00;147426.66;5045019;28;20040;-64
2022/12/10 01:11:59;;;;;;;87.77;26.80;;;;;;;-0.11;100.00;147418.97;5038146;28;20026;-64
2022/12/10 01:14:31;;;;;;;94.87;26.87;;;;;;;-0.13;100.00;147413.78;5038736;28;20038;-64
2022/12/10 01:16:59;;;;;;;79.65;26.90;;;;;;;-0.11;100.00;147418.97;5035939;28;20473;-64
2022/12/10 01:19:25;;;;;;;86.07;25.67;;;;;;;-0.10;100.00;147421.53;5039524;28;20453;-64
2022/12/10 01:21:54;;;;;;;67.40;20.37;;;;;;;-0.02;100.00;147442.00;5046215;28;20036;-64
2022/12/10 01:24:24;;;;;;;88.00;27.23;;;;;;;-0.09;100.00;147424.09;5043368;28;20029;-64
2022/12/10 01:26:50;;;;;;;85.37;25.87;;;;;;;-0.07;100.00;147429.19;5036204;28;20056;-64
2022/12/10 01:29:16;;;;;;;74.27;25.63;;;;;;;-0.07;100.00;147427.94;5048283;28;20033;-64
2022/12/10 01:31:41;;;;;;;82.80;25.07;;;;;;;-0.11;100.00;147417.69;5043014;28;20032;-64
2022/12/10 01:34:11;;;;;;;71.23;22.90;;;;;;;-0.09;100.00;147424.09;5045266;28;20025;-64
2022/12/10 01:36:38;;;;;;;79.10;26.27;;;;;;;-0.21;100.00;147392.00;5037187;28;20056;-64
2022/12/10 01:39:06;;;;;;;88.93;27.80;;;;;;;-0.20;100.00;147395.84;5033054;28;20045;-64
2022/12/10 01:41:38;;;;;;;93.37;26.40;;;;;;;-0.16;100.00;147404.81;5041756;28;20060;-64
2022/12/10 01:44:10;;;;;;;78.28;23.63;;;;;;;-0.11;100.00;147417.69;5043619;28;20028;-64
2022/12/10 01:46:36;;;;;;;;;;;;;;;-0.16;100.00;147406.09;5034101;28;20041;-64
2022/12/10 01:49:08;;;;;;;87.20;25.23;;;;;;;-0.13;100.00;147412.50;5034777;28;19912;-64
2022/12/10 01:51:37;;;;;;;82.70;25.47;;;;;;;-0.12;100.00;147416.41;5037831;28;20029;-64
2022/12/10 01:54:05;;;;;;;81.43;25.00;;;;;;;-0.10;100.00;147421.53;5024961;28;20127;-64
2022/12/10 01:56:32;;;;;;;92.87;27.13;;;;;;;-0.15;100.00;147407.38;5021255;28;20040;-64
2022/12/10 01:58:57;;;;;;;91.33;25.97;;;;;;;-0.18;100.00;147400.97;5015043;28;20661;-64
2022/12/10 02:04:18;;;;;;;94.40;26.47;;;;;;;-0.14;100.00;147411.22;5053323;22;20147;-73
2022/12/10 02:06:53;;;;;;;81.90;24.80;;;;;;;-0.12;100.00;147416.41;5014701;28;20086;-72
2022/12/10 02:09:30;;;;;;;89.03;26.93;;;;;;;-0.16;100.00;147406.09;5019601;28;20471;-73
2022/12/10 02:12:14;;;;;;;92.27;26.07;;;;;;;-0.16;100.00;147406.09;5023580;28;20025;-72
2022/12/10 02:14:59;;;;;;;87.50;27.03;;;;;;;-0.11;100.00;147417.69;5014194;28;20429;-72
2022/12/10 02:17:30;;;;;;;85.33;26.80;;;;;;;-0.10;100.00;147420.25;5017017;28;20092;-73
2022/12/10 02:20:17;;;;;;;93.90;28.05;;;;;;;-0.14;100.00;147411.22;5015118;28;20124;-72
2022/12/10 02:23:05;;;;;;;82.73;26.47;;;;;;;-0.15;100.00;147408.66;5016843;28;20163;-73
2022/12/10 02:25:45;;;;;;;79.63;25.33;;;;;;;-0.13;100.00;147412.50;5012905;28;20041;-73
2022/12/10 02:28:31;;;;;;;79.43;24.67;;;;;;;-0.11;100.00;147418.97;5012474;28;20554;-72
2022/12/10 02:30:59;;;;;;;96.63;26.93;;;;;;;-0.12;100.00;147416.41;5018804;28;20420;-73
2022/12/10 02:33:27;;;;;;;91.10;27.63;;;;;;;-0.19;100.00;147397.13;5030942;28;20021;-74
2022/12/10 02:35:55;;;;;;;91.07;27.90;;;;;;;-0.14;100.00;147411.22;5021411;28;20041;-73
2022/12/10 02:38:30;;;;;;;92.27;27.87;;;;;;;-0.20;100.00;147395.84;5027837;28;20036;-73
2022/12/10 02:41:05;;;;;;;81.17;26.47;;;;;;;-0.28;100.00;147374.03;5026878;28;20022;-73
2022/12/10 02:43:33;;;;;;;76.97;25.50;;;;;;;-0.24;100.00;147385.59;5022018;28;20029;-73
2022/12/10 02:46:02;;;;;;;83.93;26.33;;;;;;;-0.20;100.00;147395.84;5029728;28;20100;-73
2022/12/10 02:48:28;;;;;;;81.03;26.07;;;;;;;-0.21;100.00;147393.28;5027387;28;20028;-73
2022/12/10 02:50:53;;;;;;;74.03;26.53;;;;;;;-0.18;100.00;147400.97;5019371;28;20025;-73
2022/12/10 02:53:19;;;;;;;78.80;26.00;;;;;;;-0.14;100.00;147411.22;5031040;28;20033;-73
2022/12/10 02:56:19;;;;;;;72.43;26.13;;;;;;;-0.18;100.00;147400.97;5016347;28;20503;-73
2022/12/10 02:59:14;;;;;;;72.67;26.13;;;;;;;-0.17;100.00;147403.53;5026220;28;20037;-73
2022/12/10 03:02:00;;;;;;;68.17;25.70;;;;;;;-0.21;100.00;147393.28;5015992;28;20034;-73
2022/12/10 03:04:39;;;;;;;67.07;24.97;;;;;;;-0.21;100.00;147393.28;5022966;28;20029;-73
2022/12/10 03:07:14;;;;;;;66.40;25.53;;;;;;;-0.21;100.00;147393.28;5021843;28;20112;-69
2022/12/10 03:09:48;;;;;;;61.87;26.07;;;;;;;-0.15;100.00;147408.66;5020360;28;20171;-70
2022/12/10 03:12:40;;;;;;;68.03;26.20;;;;;;;-0.17;100.00;147403.53;5019879;28;20094;-69
2022/12/10 03:15:08;;;;;;;;;;;;;;;-0.15;100.00;147408.66;5021161;28;20384;-70
2022/12/10 03:17:36;;;;;;;66.50;24.87;;;;;;;-0.15;100.00;147408.66;5027954;28;19913;-69
2022/12/10 03:20:03;;;;;;;64.10;25.47;;;;;;;-0.18;100.00;147400.97;5028541;28;20389;-69
2022/12/10 03:22:30;;;;;;;64.53;25.87;;;;;;;-0.17;100.00;147403.53;5012715;28;20473;-70
2022/12/10 03:24:57;;;;;;;61.17;24.57;;;;;;;-0.17;100.00;147403.53;5013004;28;20048;-70
2022/12/10 03:27:24;;;;;;;56.30;23.47;;;;;;;-0.22;100.00;147390.72;5016062;28;20037;-67
2022/12/10 03:29:51;;;;;;;60.50;25.03;;;;;;;-0.20;100.00;147395.84;5012899;28;20022;-68
2022/12/10 03:32:20;;;;;;;60.57;24.93;;;;;;;-0.21;100.00;147393.28;5019836;28;20028;-68
2022/12/10 03:34:46;;;;;;;63.07;24.60;;;;;;;-0.23;100.00;147386.88;5015364;28;20022;-68
2022/12/10 03:37:13;;;;;;;58.80;25.00;;;;;;;-0.22;100.00;147389.44;5015462;28;20176;-69
2022/12/10 03:39:39;;;;;;;61.27;25.10;;;;;;;-0.23;100.00;147386.88;5014369;28;20037;-70
2022/12/10 03:42:06;;;;;;;59.00;23.93;;;;;;;-0.23;100.00;147388.16;5013921;28;20053;-71
2022/12/10 03:44:34;;;;;;;57.67;24.30;;;;;;;-0.26;100.00;147380.44;5018665;28;20476;-71
2022/12/10 03:47:00;;;;;;;62.07;25.90;;;;;;;-0.27;100.00;147377.88;5012761;28;20143;-70
2022/12/10 03:49:26;;;;;;;55.53;24.10;;;;;;;-0.26;100.00;147380.44;5026448;28;20063;-71
2022/12/10 03:51:51;;;;;;;55.40;23.80;;;;;;;-0.27;100.00;147376.59;5015342;28;20025;-71
2022/12/10 03:54:17;;;;;;;58.47;24.53;;;;;;;-0.25;100.00;147383.00;5012427;28;20161;-70
2022/12/10 03:56:42;;;;;;;57.73;23.77;;;;;;;-0.26;100.00;147380.44;5014246;28;20033;-71
2022/12/10 03:59:07;;;;;;;55.60;23.23;;;;;;;-0.28;100.00;147375.31;5014070;28;20024;-70
2022/12/10 04:01:33;;;;;;;54.40;22.17;;;;;;;-0.25;100.00;147381.72;5014302;28;20030;-71
2022/12/10 04:03:58;;;;;;;47.57;21.43;;;;;;;-0.15;100.00;147408.66;5018472;28;20048;-70
2022/12/10 04:06:24;;;;;;;48.03;19.57;;;;;;;-0.13;100.00;147413.78;5018155;28;20496;-70
2022/12/10 04:08:51;;;;;;;44.83;19.13;;;;;;;-0.17;100.00;147403.53;5021810;28;20026;-70
2022/12/10 04:11:16;;;;;;;45.47;21.07;;;;;;;-0.22;100.00;147390.72;5030447;28;20100;-70
2022/12/10 04:16:27;;;;;;;51.60;22.07;;;;;;;-0.30;100.00;147370.19;5015621;28;20032;-71
2022/12/10 04:18:54;;;;;;;47.03;20.83;;;;;;;-0.28;100.00;147375.31;5016525;28;20490;-70
2022/12/10 04:26:54;;;;;;;48.97;22.80;;;;;;;-0.28;100.00;147375.31;5028404;28;20032;-70
2022/12/10 04:29:26;;;;;;;48.65;20.65;;;;;;;-0.25;100.00;147383.00;5017759;28;20117;-70
2022/12/10 04:31:52;;;;;;;48.17;20.77;;;;;;;-0.24;100.00;147385.59;5011285;28;20546;-70
2022/12/10 04:34:18;;;;;;;51.80;20.87;;;;;;;-0.24;100.00;147384.28;5017803;28;20025;-71
2022/12/10 04:36:43;;;;;;;49.50;22.53;;;;;;;-0.26;100.00;147380.44;5021681;28;20049;-70
2022/12/10 04:39:11;;;;;;;47.27;22.60;;;;;;;-0.28;100.00;147374.03;5020819;28;20068;-70
2022/12/10 04:41:38;;;;;;;48.10;20.80;;;;;;;-0.30;100.00;147370.19;5018738;28;20104;-70
2022/12/10 04:44:04;;;;;;;49.70;21.40;;;;;;;-0.28;100.00;147374.03;5015297;28;20034;-70
2022/12/10 04:46:29;;;;;;;48.10;21.23;;;;;;;-0.32;100.00;147365.06;5012749;28;20030;-70
2022/12/10 04:48:54;;;;;;;50.23;21.90;;;;;;;-0.34;100.00;147359.94;5012639;28;20029;-71
2022/12/10 04:51:20;;;;;;;49.23;21.47;;;;;;;-0.36;100.00;147354.84;5014265;28;20059;-71
2022/12/10 04:53:45;;;;;;;51.63;22.63;;;;;;;-0.36;100.00;147354.84;5011610;28;20049;-71
2022/12/10 04:56:10;;;;;;;54.90;22.03;;;;;;;-0.36;100.00;147354.84;5021029;28;20013;-73
2022/12/10 04:58:36;;;;;;;46.87;21.67;;;;;;;-0.40;100.00;147344.53;5021600;28;20018;-71
2022/12/10 05:01:07;;;;;;;50.93;20.70;;;;;;;-0.42;100.00;147339.41;5012858;28;20021;-70
2022/12/10 05:03:33;;;;;;;43.33;19.85;;;;;;;-0.41;100.00;147341.97;5010762;28;20025;-70
2022/12/10 05:06:11;;;;;;;44.97;20.57;;;;;;;-0.43;100.00;147336.84;5029900;28;20496;-70
2022/12/10 05:08:38;;;;;;;47.23;21.27;;;;;;;-0.50;100.00;147318.88;5018414;28;20026;-70
2022/12/10 05:11:05;;;;;;;48.40;21.67;;;;;;;-0.57;100.00;147302.22;5012352;28;20033;-71
2022/12/10 05:13:31;;;;;;;47.83;20.17;;;;;;;-0.56;100.00;147303.50;5013996;28;20030;-71
2022/12/10 05:15:58;;;;;;;44.30;17.60;;;;;;;-0.47;100.00;147326.59;5015319;28;20036;-70
2022/12/10 05:18:23;;;;;;;45.07;20.07;;;;;;;-0.42;100.00;147339.41;5025884;28;20462;-70
2022/12/10 05:20:49;;;;;;;42.30;18.97;;;;;;;-0.45;100.00;147331.72;5011097;28;20097;-70
2022/12/10 05:23:29;;;;;;;45.67;20.67;;;;;;;-0.41;100.00;147341.97;5017389;28;20045;-70
2022/12/10 05:26:09;;;;;;;45.77;20.40;;;;;;;-0.42;100.00;147339.41;5018062;28;20037;-70
2022/12/10 05:28:37;;;;;;;34.93;15.83;;;;;;;-0.41;100.00;147341.97;5013900;28;20065;-70
2022/12/10 05:31:03;;;;;;;42.30;19.43;;;;;;;-0.41;100.00;147343.25;5026040;28;20452;-70
2022/12/10 05:33:29;;;;;;;46.73;19.93;;;;;;;-0.40;100.00;147344.53;5030392;28;20055;-70
2022/12/10 05:36:03;;;;;;;48.53;20.37;;;;;;;-0.47;100.00;147326.59;5030311;28;20456;-70
2022/12/10 05:38:31;;;;;;;46.03;20.47;;;;;;;-0.60;100.00;147295.84;5014891;28;20501;-71
2022/12/10 05:41:02;;;;;;;52.13;21.20;;;;;;;-0.68;100.00;147275.31;5015581;28;20034;-70
2022/12/10 05:43:27;;;;;;;50.13;21.92;;;;;;;-0.67;100.00;147277.88;5018179;28;20049;-70
2022/12/10 05:45:52;;;;;;;50.57;21.13;;;;;;;-0.76;100.00;147254.78;5016271;28;20061;-71
2022/12/10 05:48:18;;;;;;;51.63;21.87;;;;;;;-0.84;100.00;147234.28;5020219;28;20044;-70
2022/12/10 05:50:45;;;;;;;54.87;22.57;;;;;;;-0.90;100.00;147220.16;5025901;28;20017;-71
2022/12/10 05:53:13;;;;;;;57.23;21.97;;;;;;;-0.87;100.00;147226.56;5031940;28;20022;-70
2022/12/10 05:55:38;;;;;;;57.70;23.10;;;;;;;-0.85;100.00;147231.69;5016960;28;20490;-71
2022/12/10 05:58:04;;;;;;;61.57;24.23;;;;;;;-0.81;100.00;147241.97;5015532;28;20018;-71
2022/12/10 06:00:29;;;;;;;43.20;16.53;;;;;;;-0.83;100.00;147236.84;5019096;28;20453;-70
2022/12/10 06:02:55;;;;;;;54.97;23.33;;;;;;;-0.87;100.00;147226.56;5021001;28;20028;-71
2022/12/10 06:05:21;;;;;;;60.33;23.73;;;;;;;-0.91;100.00;147217.59;5021100;28;20029;-71
2022/12/10 06:07:47;;;;;;;56.27;23.07;;;;;;;-0.89;100.00;147222.72;5025533;28;20624;-70
2022/12/10 06:10:12;;;;;;;61.43;24.23;;;;;;;-0.95;100.00;147207.38;5031737;28;20017;-70
2022/12/10 06:12:38;;;;;;;59.73;23.73;;;;;;;-0.97;100.00;147200.91;5016628;28;20481;-71
2022/12/10 06:15:05;;;;;;;64.10;24.70;;;;;;;-1.03;100.00;147186.84;5020120;28;20022;-71
2022/12/10 06:17:30;;;;;;;56.87;24.13;;;;;;;-1.01;100.00;147190.69;5017504;28;20030;-70
2022/12/10 06:19:56;;;;;;;59.00;23.57;;;;;;;-1.02;100.00;147188.13;5013864;28;20030;-70
2022/12/10 06:22:21;;;;;;;64.93;25.10;;;;;;;-1.14;100.00;147158.66;5018435;28;20036;-71
2022/12/10 06:24:46;;;;;;;64.53;25.30;;;;;;;-1.26;100.00;147129.16;5024389;28;20384;-71
2022/12/10 06:27:12;;;;;;;68.27;24.60;;;;;;;-1.36;100.00;147103.53;5028889;28;20074;-70
2022/12/10 06:29:37;;;;;;;73.47;25.73;;;;;;;-1.38;100.00;147098.41;5018771;28;20025;-73
2022/12/10 06:32:03;;;;;;;71.00;24.67;;;;;;;-1.42;100.00;147088.19;5017356;28;20022;-73
2022/12/10 06:34:28;;;;;;;75.87;26.10;;;;;;;-1.43;100.00;147085.63;5020000;28;20029;-70
2022/12/10 06:36:53;;;;;;;77.50;27.17;;;;;;;-1.39;100.00;147095.84;5027296;28;20393;-70
2022/12/10 06:39:18;;;;;;;71.97;25.03;;;;;;;-1.21;100.00;147140.72;5014580;28;20452;-70
2022/12/10 06:41:45;;;;;;;64.33;23.60;;;;;;;-1.15;100.00;147154.81;5018153;28;20393;-73
2022/12/10 06:44:11;;;;;;;56.30;22.00;;;;;;;-1.04;100.00;147183.00;5014333;28;20037;-70
2022/12/10 06:46:36;;;;;;;61.83;23.90;;;;;;;-1.08;100.00;147174.06;5016719;28;20365;-71
2022/12/10 06:49:03;;;;;;;74.63;26.17;;;;;;;-1.09;100.00;147171.50;5013544;28;20102;-71
2022/12/10 06:51:28;;;;;;;67.57;26.13;;;;;;;-1.05;100.00;147180.44;5016013;28;20025;-71
2022/12/10 06:53:55;;;;;;;71.63;26.40;;;;;;;-1.06;100.00;147179.16;5013428;28;20022;-71
2022/12/10 06:56:20;;;;;;;70.50;24.57;;;;;;;-1.06;100.00;147177.88;5018293;28;20026;-70
2022/12/10 06:58:47;;;;;;;75.37;27.60;;;;;;;-1.07;100.00;147175.34;5021989;28;20036;-71
2022/12/10 07:01:21;;;;;;;74.83;27.13;;;;;;;-1.04;100.00;147183.00;5023100;28;20033;-70
2022/12/10 07:03:51;;;;;;;69.27;24.87;;;;;;;-1.00;100.00;147193.25;5024531;28;20029;-70
2022/12/10 07:06:17;;;;;;;70.67;25.57;;;;;;;-0.96;100.00;147203.53;5032735;28;20157;-71
2022/12/10 07:08:42;;;;;;;78.73;27.67;;;;;;;-0.97;100.00;147200.91;5013093;28;20830;-71
2022/12/10 07:11:10;;;;;;;75.03;26.60;;;;;;;-1.03;100.00;147185.56;5014528;28;20265;-71
2022/12/10 07:13:37;;;;;;;66.37;24.80;;;;;;;-1.03;100.00;147186.84;5019912;28;20552;-70
2022/12/10 07:16:02;;;;;;;63.10;23.30;;;;;;;-0.90;100.00;147218.88;5024850;28;20032;-70
2022/12/10 07:18:28;;;;;;;61.77;22.63;;;;;;;-0.83;100.00;147236.84;5031253;28;20025;-70
2022/12/10 07:20:53;;;;;;;60.47;22.93;;;;;;;-0.76;100.00;147254.78;5029032;28;20025;-70
2022/12/10 07:23:19;;;;;;;63.97;25.03;;;;;;;-0.77;100.00;147250.94;5021546;28;20029;-70
2022/12/10 07:25:44;;;;;;;69.47;25.80;;;;;;;-0.77;100.00;147250.94;5016110;28;20061;-71
2022/12/10 07:28:10;;;;;;;62.50;24.87;;;;;;;-0.81;100.00;147240.69;5015533;28;20037;-70
2022/12/10 07:30:35;;;;;;;69.37;26.03;;;;;;;-0.86;100.00;147229.13;5013899;28;20101;-71
2022/12/10 07:33:01;;;;;;;61.90;23.83;;;;;;;-0.88;100.00;147224.00;5020725;28;20013;-70
2022/12/10 07:35:26;;;;;;;71.60;25.30;;;;;;;-0.87;100.00;147226.56;5015215;28;20557;-70
2022/12/10 07:37:51;;;;;;;72.60;26.80;;;;;;;-0.88;100.00;147224.00;5015341;28;20029;-70
2022/12/10 07:40:17;;;;;;;72.30;25.50;;;;;;;-0.92;100.00;147213.78;5015441;28;20067;-71
2022/12/10 07:42:42;;;;;;;66.80;25.37;;;;;;;-0.98;100.00;147198.38;5016282;28;20528;-71
2022/12/10 07:45:08;;;;;;;79.43;26.80;;;;;;;-1.07;100.00;147176.59;5019194;28;20032;-70
2022/12/10 07:47:37;;;;;;;78.33;26.50;;;;;;;-1.08;100.00;147172.78;5029533;28;20017;-70
2022/12/10 07:50:03;;;;;;;73.50;25.23;;;;;;;-0.98;100.00;147198.38;5025083;28;20546;-70
2022/12/10 07:52:28;;;;;;;62.93;23.37;;;;;;;-0.91;100.00;147216.31;5030556;28;20045;-72
2022/12/10 07:54:54;;;;;;;63.00;23.20;;;;;;;-0.80;100.00;147244.53;5014479;28;20026;-70
2022/12/10 07:57:19;;;;;;;58.60;24.00;;;;;;;-0.78;100.00;147249.66;5025885;28;20033;-70
2022/12/10 07:59:44;;;;;;;65.80;25.10;;;;;;;-0.72;100.00;147265.06;5015230;28;20025;-70
2022/12/10 08:02:10;;;;;;;57.93;24.27;;;;;;;-0.69;100.00;147272.75;5026733;28;20080;-70
2022/12/10 08:04:37;;;;;;;59.40;24.87;;;;;;;-0.69;100.00;147271.47;5014822;28;20038;-70
2022/12/10 08:07:02;;;;;;;63.40;24.73;;;;;;;-0.70;100.00;147268.91;5017778;28;20056;-70
2022/12/10 08:09:28;;;;;;;65.17;24.83;;;;;;;-0.72;100.00;147265.06;5030406;28;20714;-70
2022/12/10 08:11:53;;;;;;;62.97;25.30;;;;;;;-0.64;100.00;147285.53;5019590;28;20110;-70
2022/12/10 08:14:18;;;;;;;60.83;25.07;;;;;;;-0.61;100.00;147291.94;5015237;28;20482;-70
2022/12/10 08:16:44;;;;;;;63.07;25.13;;;;;;;-0.55;100.00;147307.34;5021306;28;20428;-70
2022/12/10 08:19:09;;;;;;;64.03;26.17;;;;;;;-0.44;100.00;147334.28;5020727;28;20502;-70
2022/12/10 08:21:35;;;;;;;64.47;25.13;;;;;;;-0.37;100.00;147352.22;5019826;28;20033;-70
2022/12/10 08:24:00;;;;;;;60.77;25.30;;;;;;;-0.28;100.00;147375.31;5018919;28;20030;-70
2022/12/10 08:26:29;;;;;;;65.87;25.53;;;;;;;-0.23;100.00;147386.88;5028385;28;20409;-71
2022/12/10 08:28:56;;;;;;;63.80;23.43;;;;;;;-0.14;100.00;147411.22;5013448;28;20104;-70
2022/12/10 08:31:23;;;;;;;59.27;23.83;;;;;;;-0.11;100.00;147418.97;5018090;28;20095;-70
2022/12/10 08:33:49;;;;;;;55.17;22.27;;;;;;;-0.07;100.00;147427.94;5024637;28;20101;-70
2022/12/10 08:36:16;;;;;;;56.07;23.73;;;;;;;-0.06;100.00;147431.75;5022922;28;20031;-70
2022/12/10 08:38:42;;;;;;;55.87;23.77;;;;;;;-0.04;100.00;147436.91;5014859;28;20014;-70
2022/12/10 08:41:19;;;;;;;56.83;23.93;;;;;;;0.01;100.00;147447.19;5017396;28;20460;-70
2022/12/10 08:43:44;;;;;;;51.73;23.30;;;;;;;0.05;100.00;147457.44;5024817;28;20028;-70
2022/12/10 08:46:11;;;;;;;53.47;22.40;;;;;;;0.16;100.00;147485.66;5011027;28;20018;-70
2022/12/10 08:48:37;;;;;;;52.03;20.97;;;;;;;0.17;100.00;147488.22;5016898;28;20030;-70
2022/12/10 08:51:04;;;;;;;52.40;21.40;;;;;;;0.22;100.00;147502.31;5012490;28;20036;-70
2022/12/10 08:53:30;;;;;;;51.57;22.00;;;;;;;0.21;100.00;147498.47;5015379;28;20071;-70
2022/12/10 08:55:55;;;;;;;46.97;21.43;;;;;;;0.25;100.00;147510.06;5013751;28;20034;-70
2022/12/10 08:58:21;;;;;;;53.23;22.90;;;;;;;0.25;100.00;147508.78;5015576;28;20147;-70
2022/12/10 09:00:48;;;;;;;54.13;23.83;;;;;;;0.28;100.00;147516.47;5012117;28;20022;-70
2022/12/10 09:03:13;;;;;;;47.70;20.60;;;;;;;0.31;100.00;147524.16;5010566;28;20034;-70
2022/12/10 09:05:39;;;;;;;44.13;20.27;;;;;;;0.33;100.00;147529.28;5019954;28;20041;-70
2022/12/10 09:08:04;;;;;;;48.67;21.70;;;;;;;0.32;100.00;147525.44;5017693;28;20022;-70
2022/12/10 09:10:30;;;;;;;51.50;22.50;;;;;;;0.31;100.00;147524.16;5019001;28;20297;-70
2022/12/10 09:12:55;;;;;;;40.10;17.23;;;;;;;0.42;100.00;147551.09;5018547;28;20061;-70
2022/12/10 09:15:20;;;;;;;43.70;18.20;;;;;;;0.43;100.00;147554.97;5031241;28;20061;-70
2022/12/10 09:17:46;;;;;;;42.23;18.00;;;;;;;0.45;100.00;147560.09;5024003;28;20025;-70
2022/12/10 09:20:12;;;;;;;42.40;17.87;;;;;;;0.46;100.00;147562.66;5024082;28;20061;-70
2022/12/10 09:22:38;;;;;;;44.50;19.63;;;;;;;0.47;100.00;147565.22;5021710;28;20030;-70
2022/12/10 09:25:05;;;;;;;41.27;17.90;;;;;;;0.50;100.00;147572.94;5031480;28;20388;-70
2022/12/10 09:27:31;;;;;;;49.87;21.83;;;;;;;0.55;100.00;147585.75;5023936;28;20121;-70
2022/12/10 09:29:56;;;;;;;35.50;14.30;;;;;;;0.56;100.00;147588.31;5022247;28;20104;-70
2022/12/10 09:32:21;;;;;;;41.43;17.67;;;;;;;0.54;100.00;147581.91;5018025;28;20025;-70
2022/12/10 09:34:51;;;;;;;39.87;17.17;;;;;;;0.58;100.00;147593.44;5028050;28;20388;-70
2022/12/10 09:37:16;;;;;;;36.87;15.87;;;;;;;0.58;100.00;147593.44;5014168;28;20029;-72
2022/12/10 09:39:41;;;;;;;38.33;17.23;;;;;;;0.63;100.00;147603.75;5018503;28;20032;-72
2022/12/10 09:42:36;;;;;;;37.90;14.27;;;;;;;0.69;100.00;147619.13;5014182;28;20448;-72
2022/12/10 09:45:24;;;;;;;42.73;18.03;;;;;;;0.76;100.00;147638.41;5011086;28;20061;-72
2022/12/10 09:48:06;;;;;;;46.27;19.47;;;;;;;0.84;100.00;147658.91;5020748;28;20044;-72
2022/12/10 09:50:41;;;;;;;46.47;20.20;;;;;;;0.87;100.00;147665.38;5016621;28;20084;-72
2022/12/10 09:53:12;;;;;;;42.23;20.13;;;;;;;0.93;100.00;147679.47;5030039;28;20461;-70
2022/12/10 09:55:43;;;;;;;46.38;20.33;;;;;;;0.98;100.00;147692.34;5021125;28;20036;-70
2022/12/10 09:58:17;;;;;;;42.80;19.98;;;;;;;1.02;100.00;147703.88;5016813;28;20385;-70
2022/12/10 10:00:46;;;;;;;38.70;17.33;;;;;;;1.04;100.00;147707.72;5022076;28;20080;-70
2022/12/10 10:03:14;;;;;;;44.37;20.43;;;;;;;1.02;100.00;147702.59;5020293;28;20696;-70
2022/12/10 10:05:47;;;;;;;38.33;18.37;;;;;;;1.11;100.00;147727.00;5017869;28;20049;-70
2022/12/10 10:08:37;;;;;;;46.07;21.10;;;;;;;0.99;100.00;147694.91;5017204;28;20029;-70
2022/12/10 10:11:04;;;;;;;44.03;20.33;;;;;;;1.10;100.00;147723.16;5021851;28;20056;-70
2022/12/10 10:13:39;;;;;;;44.70;20.63;;;;;;;1.10;100.00;147723.16;5020524;28;20488;-70
2022/12/10 10:16:30;;;;;;;47.77;21.00;;;;;;;1.31;100.00;147775.78;5026898;28;20053;-70
2022/12/10 10:18:58;;;;;;;46.53;20.80;;;;;;;1.36;100.00;147788.66;5023390;28;20394;-70
2022/12/10 10:21:27;;;;;;;45.03;20.63;;;;;;;1.34;100.00;147783.53;5019815;28;20283;-70
2022/12/10 10:23:53;;;;;;;44.57;20.63;;;;;;;1.40;100.00;147798.94;5020816;28;20034;-70
2022/12/10 10:26:19;;;;;;;41.53;20.73;;;;;;;1.48;100.00;147818.22;5025635;28;20029;-70
2022/12/10 10:28:45;;;;;;;43.40;20.47;;;;;;;1.60;100.00;147850.34;5026506;28;20473;-70
2022/12/10 10:31:18;;;;;;;43.13;20.73;;;;;;;1.61;100.00;147851.63;5022521;28;20026;-70
2022/12/10 10:33:59;;;;;;;46.77;21.40;;;;;;;1.57;100.00;147841.31;5027561;28;20025;-70
2022/12/10 10:36:30;;;;;;;41.40;20.70;;;;;;;1.49;100.00;147822.06;5022144;28;20037;-70
2022/12/10 10:38:56;;;;;;;46.67;21.67;;;;;;;1.60;100.00;147850.34;5028712;28;20025;-70
2022/12/10 10:41:23;;;;;;;40.87;20.80;;;;;;;1.58;100.00;147843.91;5030637;28;20036;-71
2022/12/10 10:43:58;;;;;;;41.80;20.47;;;;;;;1.66;100.00;147865.72;5032165;28;20037;-70
2022/12/10 10:46:25;;;;;;;44.87;21.67;;;;;;;1.63;100.00;147856.75;5032537;28;20029;-70
2022/12/10 10:48:50;;;;;;;39.47;20.27;;;;;;;1.48;100.00;147818.22;5033398;28;20022;-70
2022/12/10 10:51:20;;;;;;;42.10;20.27;;;;;;;1.70;100.00;147876.03;5032139;28;20017;-71
2022/12/10 10:53:54;;;;;;;42.37;20.63;;;;;;;1.85;100.00;147912.03;5033268;28;20088;-70
2022/12/10 10:56:22;;;;;;;43.60;20.13;;;;;;;1.89;100.00;147922.28;5031217;28;20030;-71
2022/12/10 10:58:52;;;;;;;39.87;19.27;;;;;;;2.01;100.00;147954.41;5033444;28;20327;-71
2022/12/10 11:01:18;;;;;;;40.70;20.13;;;;;;;1.84;100.00;147909.44;5032881;28;20064;-71
2022/12/10 11:03:49;;;;;;;42.63;20.83;;;;;;;1.83;100.00;147908.16;5030772;28;20032;-71
2022/12/10 11:06:15;;;;;;;41.92;20.55;;;;;;;2.06;100.00;147966.03;5032907;28;20484;-70
2022/12/10 11:08:44;;;;;;;41.90;18.87;;;;;;;2.09;100.00;147973.72;5029729;28;20457;-71
2022/12/10 11:11:20;;;;;;;42.40;19.13;;;;;;;2.11;100.00;147978.84;5020798;28;20026;-71
2022/12/10 11:13:46;;;;;;;39.73;19.50;;;;;;;2.13;100.00;147983.97;5022548;28;20089;-70
2022/12/10 11:16:18;;;;;;;40.77;20.67;;;;;;;2.04;100.00;147962.13;5032204;28;20160;-71
2022/12/10 11:19:02;;;;;;;36.40;18.57;;;;;;;2.03;100.00;147958.25;5032017;28;20045;-70
2022/12/10 11:21:29;;;;;;;34.37;16.07;;;;;;;2.09;100.00;147973.72;5031923;28;20033;-71